sensor_id;sensor_type;location;lat;lon;timestamp;temperature;humidity
5429;DHT22;2737;52.386;9.980;2022-12-18T00:00:48;-6.30;99.90
5429;DHT22;2737;52.386;9.980;2022-12-18T00:03:15;-6.40;99.90
5429;DHT22;2737;52.386;9.980;2022-12-18T00:05:48;-6.30;99.90
5429;DHT22;2737;52.386;9.980;2022-12-18T00:08:16;-6.40;99.90
5429;DHT22;2737;52.386;9.980;2022-12-18T00:10:44;-6.40;99.90
5429;DHT22;2737;52.386;9.980;2022-12-18T00:13:11;-6.40;99.90
5429;DHT22;2737;52.386;9.980;2022-12-18T00:15:40;-6.40;99.90
5429;DHT22;2737;52.386;9.980;2022-12-18T00:18:07;-6.40;99.90
5429;DHT22;2737;52.386;9.980;2022-12-18T00:20:36;-6.40;99.90
5429;DHT22;2737;52.386;9.980;2022-12-18T00:23:04;-6.40;99.90
5429;DHT22;2737;52.386;9.980;2022-12-18T00:25:32;-6.40;99.90
5429;DHT22;2737;52.386;9.980;2022-12-18T00:28:00;-6.40;99.90
5429;DHT22;2737;52.386;9.980;2022-12-18T00:30:27;-6.40;99.90
5429;DHT22;2737;52.386;9.980;2022-12-18T00:32:55;-6.40;99.90
5429;DHT22;2737;52.386;9.980;2022-12-18T00:35:22;-6.40;99.90
5429;DHT22;2737;52.386;9.980;2022-12-18T00:37:49;-6.50;99.90
5429;DHT22;2737;52.386;9.980;2022-12-18T00:40:17;-6.30;99.90
5429;DHT22;2737;52.386;9.980;2022-12-18T00:42:44;-6.50;99.90
5429;DHT22;2737;52.386;9.980;2022-12-18T00:45:22;-6.60;99.90
5429;DHT22;2737;52.386;9.980;2022-12-18T00:47:49;-6.60;99.90
5429;DHT22;2737;52.386;9.980;2022-12-18T00:50:18;-6.60;99.90
5429;DHT22;2737;52.386;9.980;2022-12-18T00:52:45;-6.60;99.90
5429;DHT22;2737;52.386;9.980;2022-12-18T00:55:12;-6.60;99.90
5429;DHT22;2737;52.386;9.980;2022-12-18T00:57:40;-6.50;99.90
5429;DHT22;2737;52.386;9.980;2022-12-18T01:00:10;-6.60;99.90
5429;DHT22;2737;52.386;9.980;2022-12-18T01:02:37;-6.60;99.90
5429;DHT22;2737;52.386;9.980;2022-12-18T01:05:05;-6.60;99.90
5429;DHT22;2737;52.386;9.980;2022-12-18T01:07:34;-6.60;99.90
5429;DHT22;2737;52.386;9.980;2022-12-18T01:10:01;-6.70;99.90
5429;DHT22;2737;52.386;9.980;2022-12-18T01:12:28;-6.70;99.90
5429;DHT22;2737;52.386;9.980;2022-12-18T01:14:55;-6.70;99.90
5429;DHT22;2737;52.386;9.980;2022-12-18T01:17:22;-6.70;99.90
5429;DHT22;2737;52.386;9.980;2022-12-18T01:19:49;-6.70;99.90
5429;DHT22;2737;52.386;9.980;2022-12-18T01:22:16;-6.70;99.90
5429;DHT22;2737;52.386;9.980;2022-12-18T01:24:45;-6.70;99.90
5429;DHT22;2737;52.386;9.980;2022-12-18T01:27:12;-6.70;99.90
5429;DHT22;2737;52.386;9.980;2022-12-18T01:29:39;-6.70;99.90
5429;DHT22;2737;52.386;9.980;2022-12-18T01:32:06;-6.80;99.90
5429;DHT22;2737;52.386;9.980;2022-12-18T01:34:34;-6.80;99.90
5429;DHT22;2737;52.386;9.980;2022-12-18T01:37:03;-6.70;99.90
5429;DHT22;2737;52.386;9.980;2022-12-18T01:39:30;-6.80;99.90
5429;DHT22;2737;52.386;9.980;2022-12-18T01:41:59;-6.90;99.90
5429;DHT22;2737;52.386;9.980;2022-12-18T01:44:58;-6.80;99.90
5429;DHT22;2737;52.386;9.980;2022-12-18T01:47:32;-6.80;99.90
5429;DHT22;2737;52.386;9.980;2022-12-18T01:50:03;-6.80;99.90
5429;DHT22;2737;52.386;9.980;2022-12-18T01:52:31;-6.80;99.90
5429;DHT22;2737;52.386;9.980;2022-12-18T01:55:00;-6.80;99.90
5429;DHT22;2737;52.386;9.980;2022-12-18T01:57:29;-6.70;99.90
5429;DHT22;2737;52.386;9.980;2022-12-18T02:00:00;-6.70;99.90
5429;DHT22;2737;52.386;9.980;2022-12-18T02:02:28;-6.70;99.90
5429;DHT22;2737;52.386;9.980;2022-12-18T02:04:56;-6.70;99.90
5429;DHT22;2737;52.386;9.980;2022-12-18T02:07:28;-6.70;99.90
5429;DHT22;2737;52.386;9.980;2022-12-18T02:10:02;-6.60;99.90
5429;DHT22;2737;52.386;9.980;2022-12-18T02:12:38;-6.60;99.90
5429;DHT22;2737;52.386;9.980;2022-12-18T02:15:11;-6.50;99.90
5429;DHT22;2737;52.386;9.980;2022-12-18T02:17:43;-6.60;99.90
5429;DHT22;2737;52.386;9.980;2022-12-18T02:20:17;-6.60;99.90
5429;DHT22;2737;52.386;9.980;2022-12-18T02:22:59;-6.60;99.90
5429;DHT22;2737;52.386;9.980;2022-12-18T02:25:43;-6.60;99.90
5429;DHT22;2737;52.386;9.980;2022-12-18T02:28:15;-6.60;99.90
5429;DHT22;2737;52.386;9.980;2022-12-18T02:30:46;-6.60;99.90
5429;DHT22;2737;52.386;9.980;2022-12-18T02:33:15;-6.60;99.90
5429;DHT22;2737;52.386;9.980;2022-12-18T02:35:43;-6.70;99.90
5429;DHT22;2737;52.386;9.980;2022-12-18T02:38:12;-6.60;99.90
5429;DHT22;2737;52.386;9.980;2022-12-18T02:40:40;-6.70;99.90
5429;DHT22;2737;52.386;9.980;2022-12-18T02:43:08;-6.70;99.90
5429;DHT22;2737;52.386;9.980;2022-12-18T02:45:45;-6.70;99.90
5429;DHT22;2737;52.386;9.980;2022-12-18T02:48:13;-6.60;99.90
5429;DHT22;2737;52.386;9.980;2022-12-18T02:50:45;-6.70;99.90
5429;DHT22;2737;52.386;9.980;2022-12-18T02:53:21;-6.70;99.90
5429;DHT22;2737;52.386;9.980;2022-12-18T02:55:55;-6.80;99.90
5429;DHT22;2737;52.386;9.980;2022-12-18T02:58:29;-6.80;99.90
5429;DHT22;2737;52.386;9.980;2022-12-18T03:01:03;-6.90;99.90
5429;DHT22;2737;52.386;9.980;2022-12-18T03:03:35;-6.90;99.90
5429;DHT22;2737;52.386;9.980;2022-12-18T03:06:06;-6.90;99.90
5429;DHT22;2737;52.386;9.980;2022-12-18T03:08:38;-6.90;99.90
5429;DHT22;2737;52.386;9.980;2022-12-18T03:11:08;-6.90;99.90
5429;DHT22;2737;52.386;9.980;2022-12-18T03:13:38;-6.90;99.90
5429;DHT22;2737;52.386;9.980;2022-12-18T03:16:10;-6.90;99.90
5429;DHT22;2737;52.386;9.980;2022-12-18T03:18:41;-6.90;99.90
5429;DHT22;2737;52.386;9.980;2022-12-18T03:21:09;-6.90;99.90
5429;DHT22;2737;52.386;9.980;2022-12-18T03:23:40;-6.90;99.90
5429;DHT22;2737;52.386;9.980;2022-12-18T03:26:11;-6.90;99.90
5429;DHT22;2737;52.386;9.980;2022-12-18T03:28:43;-6.90;99.90
5429;DHT22;2737;52.386;9.980;2022-12-18T03:31:14;-6.90;99.90
5429;DHT22;2737;52.386;9.980;2022-12-18T03:33:45;-6.90;99.90
5429;DHT22;2737;52.386;9.980;2022-12-18T03:36:13;-6.90;99.90
5429;DHT22;2737;52.386;9.980;2022-12-18T03:38:40;-6.90;99.90
5429;DHT22;2737;52.386;9.980;2022-12-18T03:41:14;-6.80;99.90
5429;DHT22;2737;52.386;9.980;2022-12-18T03:43:48;-6.80;99.90
5429;DHT22;2737;52.386;9.980;2022-12-18T03:46:26;-6.80;99.90
5429;DHT22;2737;52.386;9.980;2022-12-18T03:49:01;-6.70;99.90
5429;DHT22;2737;52.386;9.980;2022-12-18T03:51:36;-6.80;99.90
5429;DHT22;2737;52.386;9.980;2022-12-18T03:54:07;-6.80;99.90
5429;DHT22;2737;52.386;9.980;2022-12-18T03:56:38;-6.70;99.90
5429;DHT22;2737;52.386;9.980;2022-12-18T03:59:08;-6.80;99.90
5429;DHT22;2737;52.386;9.980;2022-12-18T04:01:40;-6.80;99.90
5429;DHT22;2737;52.386;9.980;2022-12-18T04:04:09;-6.80;99.90
5429;DHT22;2737;52.386;9.980;2022-12-18T04:06:38;-6.80;99.90
5429;DHT22;2737;52.386;9.980;2022-12-18T04:09:06;-6.90;99.90
5429;DHT22;2737;52.386;9.980;2022-12-18T04:11:34;-6.90;99.90
5429;DHT22;2737;52.386;9.980;2022-12-18T04:14:01;-6.90;99.90
5429;DHT22;2737;52.386;9.980;2022-12-18T04:16:28;-7.00;99.90
5429;DHT22;2737;52.386;9.980;2022-12-18T04:18:57;-7.00;99.90
5429;DHT22;2737;52.386;9.980;2022-12-18T04:21:24;-7.00;99.90
5429;DHT22;2737;52.386;9.980;2022-12-18T04:23:51;-7.00;99.90
5429;DHT22;2737;52.386;9.980;2022-12-18T04:26:18;-7.00;99.90
5429;DHT22;2737;52.386;9.980;2022-12-18T04:28:45;-7.00;99.90
5429;DHT22;2737;52.386;9.980;2022-12-18T04:31:13;-7.00;99.90
5429;DHT22;2737;52.386;9.980;2022-12-18T04:33:40;-7.10;99.90
5429;DHT22;2737;52.386;9.980;2022-12-18T04:36:08;-7.10;99.90
5429;DHT22;2737;52.386;9.980;2022-12-18T04:38:38;-7.10;99.90
5429;DHT22;2737;52.386;9.980;2022-12-18T04:41:05;-7.00;99.90
5429;DHT22;2737;52.386;9.980;2022-12-18T04:43:32;-7.00;99.90
5429;DHT22;2737;52.386;9.980;2022-12-18T04:46:03;-6.90;99.90
5429;DHT22;2737;52.386;9.980;2022-12-18T04:48:30;-7.00;99.90
5429;DHT22;2737;52.386;9.980;2022-12-18T04:50:58;-7.00;99.90
5429;DHT22;2737;52.386;9.980;2022-12-18T04:53:26;-7.10;99.90
5429;DHT22;2737;52.386;9.980;2022-12-18T04:56:03;-7.10;99.90
5429;DHT22;2737;52.386;9.980;2022-12-18T04:58:30;-7.10;99.90
5429;DHT22;2737;52.386;9.980;2022-12-18T05:00:57;-7.10;99.90
5429;DHT22;2737;52.386;9.980;2022-12-18T05:03:24;-7.10;99.90
5429;DHT22;2737;52.386;9.980;2022-12-18T05:05:52;-7.00;99.90
5429;DHT22;2737;52.386;9.980;2022-12-18T05:08:19;-7.10;99.90
5429;DHT22;2737;52.386;9.980;2022-12-18T05:10:47;-7.10;99.90
5429;DHT22;2737;52.386;9.980;2022-12-18T05:13:14;-7.10;99.90
5429;DHT22;2737;52.386;9.980;2022-12-18T05:15:41;-7.20;99.90
5429;DHT22;2737;52.386;9.980;2022-12-18T05:18:08;-7.20;99.90
5429;DHT22;2737;52.386;9.980;2022-12-18T05:20:35;-7.20;99.90
5429;DHT22;2737;52.386;9.980;2022-12-18T05:23:02;-7.30;99.90
5429;DHT22;2737;52.386;9.980;2022-12-18T05:25:29;-7.30;99.90
5429;DHT22;2737;52.386;9.980;2022-12-18T05:27:58;-7.30;99.90
5429;DHT22;2737;52.386;9.980;2022-12-18T05:30:25;-7.30;99.90
5429;DHT22;2737;52.386;9.980;2022-12-18T05:32:53;-7.20;99.90
5429;DHT22;2737;52.386;9.980;2022-12-18T05:35:20;-7.20;99.90
5429;DHT22;2737;52.386;9.980;2022-12-18T05:37:47;-7.20;99.90
5429;DHT22;2737;52.386;9.980;2022-12-18T05:40:14;-7.20;99.90
5429;DHT22;2737;52.386;9.980;2022-12-18T05:42:41;-7.20;99.90
5429;DHT22;2737;52.386;9.980;2022-12-18T05:45:10;-7.20;99.90
5429;DHT22;2737;52.386;9.980;2022-12-18T05:47:37;-7.20;99.90
5429;DHT22;2737;52.386;9.980;2022-12-18T05:50:05;-7.20;99.90
5429;DHT22;2737;52.386;9.980;2022-12-18T05:52:33;-7.10;99.90
5429;DHT22;2737;52.386;9.980;2022-12-18T05:55:00;-7.10;99.90
5429;DHT22;2737;52.386;9.980;2022-12-18T05:57:27;-7.20;99.90
5429;DHT22;2737;52.386;9.980;2022-12-18T05:59:54;-7.20;99.90
5429;DHT22;2737;52.386;9.980;2022-12-18T06:02:22;-7.20;99.90
5429;DHT22;2737;52.386;9.980;2022-12-18T06:04:49;-7.30;99.90
5429;DHT22;2737;52.386;9.980;2022-12-18T06:07:16;-7.30;99.90
5429;DHT22;2737;52.386;9.980;2022-12-18T06:09:43;-7.30;99.90
5429;DHT22;2737;52.386;9.980;2022-12-18T06:12:10;-7.30;99.90
5429;DHT22;2737;52.386;9.980;2022-12-18T06:14:37;-7.40;99.90
5429;DHT22;2737;52.386;9.980;2022-12-18T06:17:04;-7.40;99.90
5429;DHT22;2737;52.386;9.980;2022-12-18T06:19:33;-7.40;99.90
5429;DHT22;2737;52.386;9.980;2022-12-18T06:22:00;-7.40;99.90
5429;DHT22;2737;52.386;9.980;2022-12-18T06:24:27;-7.40;99.90
5429;DHT22;2737;52.386;9.980;2022-12-18T06:26:54;-7.30;99.90
5429;DHT22;2737;52.386;9.980;2022-12-18T06:29:21;-7.30;99.90
5429;DHT22;2737;52.386;9.980;2022-12-18T06:31:48;-7.40;99.90
5429;DHT22;2737;52.386;9.980;2022-12-18T06:34:15;-7.40;99.90
5429;DHT22;2737;52.386;9.980;2022-12-18T06:36:43;-7.40;99.90
5429;DHT22;2737;52.386;9.980;2022-12-18T06:39:10;-7.40;99.90
5429;DHT22;2737;52.386;9.980;2022-12-18T06:41:37;-7.40;99.90
5429;DHT22;2737;52.386;9.980;2022-12-18T06:44:04;-7.40;99.90
5429;DHT22;2737;52.386;9.980;2022-12-18T06:46:32;-7.50;99.90
5429;DHT22;2737;52.386;9.980;2022-12-18T06:48:59;-7.50;99.90
5429;DHT22;2737;52.386;9.980;2022-12-18T06:51:26;-7.50;99.90
5429;DHT22;2737;52.386;9.980;2022-12-18T06:53:54;-7.50;99.90
5429;DHT22;2737;52.386;9.980;2022-12-18T06:56:22;-7.50;99.90
5429;DHT22;2737;52.386;9.980;2022-12-18T06:58:49;-7.60;99.90
5429;DHT22;2737;52.386;9.980;2022-12-18T07:01:16;-7.50;99.90
5429;DHT22;2737;52.386;9.980;2022-12-18T07:03:43;-7.60;99.90
5429;DHT22;2737;52.386;9.980;2022-12-18T07:06:14;-7.60;99.90
5429;DHT22;2737;52.386;9.980;2022-12-18T07:08:41;-7.70;99.90
5429;DHT22;2737;52.386;9.980;2022-12-18T07:11:10;-7.70;99.90
5429;DHT22;2737;52.386;9.980;2022-12-18T07:13:37;-7.70;99.90
5429;DHT22;2737;52.386;9.980;2022-12-18T07:16:07;-7.70;99.90
5429;DHT22;2737;52.386;9.980;2022-12-18T07:18:34;-7.70;99.90
5429;DHT22;2737;52.386;9.980;2022-12-18T07:21:05;-7.80;99.90
5429;DHT22;2737;52.386;9.980;2022-12-18T07:23:33;-7.80;99.90
5429;DHT22;2737;52.386;9.980;2022-12-18T07:26:01;-7.80;99.90
5429;DHT22;2737;52.386;9.980;2022-12-18T07:28:30;-7.80;99.90
5429;DHT22;2737;52.386;9.980;2022-12-18T07:30:58;-7.70;99.90
5429;DHT22;2737;52.386;9.980;2022-12-18T07:33:26;-7.70;99.90
5429;DHT22;2737;52.386;9.980;2022-12-18T07:35:53;-7.70;99.90
5429;DHT22;2737;52.386;9.980;2022-12-18T07:38:20;-7.80;99.90
5429;DHT22;2737;52.386;9.980;2022-12-18T07:40:47;-7.80;99.90
5429;DHT22;2737;52.386;9.980;2022-12-18T07:43:14;-7.80;99.90
5429;DHT22;2737;52.386;9.980;2022-12-18T07:45:43;-7.80;99.90
5429;DHT22;2737;52.386;9.980;2022-12-18T07:48:10;-7.80;99.90
5429;DHT22;2737;52.386;9.980;2022-12-18T07:50:37;-7.80;99.90
5429;DHT22;2737;52.386;9.980;2022-12-18T07:53:05;-7.80;99.90
5429;DHT22;2737;52.386;9.980;2022-12-18T07:55:32;-7.80;99.90
5429;DHT22;2737;52.386;9.980;2022-12-18T07:58:01;-7.70;99.90
5429;DHT22;2737;52.386;9.980;2022-12-18T08:00:28;-7.60;99.90
5429;DHT22;2737;52.386;9.980;2022-12-18T08:02:57;-7.60;99.90
5429;DHT22;2737;52.386;9.980;2022-12-18T08:05:24;-7.60;99.90
5429;DHT22;2737;52.386;9.980;2022-12-18T08:07:51;-7.60;99.90
5429;DHT22;2737;52.386;9.980;2022-12-18T08:10:19;-7.60;99.90
5429;DHT22;2737;52.386;9.980;2022-12-18T08:12:49;-7.60;99.90
5429;DHT22;2737;52.386;9.980;2022-12-18T08:15:16;-7.50;99.90
5429;DHT22;2737;52.386;9.980;2022-12-18T08:17:44;-7.50;99.90
5429;DHT22;2737;52.386;9.980;2022-12-18T08:20:12;-7.50;99.90
5429;DHT22;2737;52.386;9.980;2022-12-18T08:22:40;-7.50;99.90
5429;DHT22;2737;52.386;9.980;2022-12-18T08:25:08;-7.40;99.90
5429;DHT22;2737;52.386;9.980;2022-12-18T08:27:36;-7.40;99.90
5429;DHT22;2737;52.386;9.980;2022-12-18T08:30:03;-7.40;99.90
5429;DHT22;2737;52.386;9.980;2022-12-18T08:32:30;-7.30;99.90
5429;DHT22;2737;52.386;9.980;2022-12-18T08:34:58;-7.20;99.90
5429;DHT22;2737;52.386;9.980;2022-12-18T08:37:27;-7.20;99.90
5429;DHT22;2737;52.386;9.980;2022-12-18T08:39:54;-7.10;99.90
5429;DHT22;2737;52.386;9.980;2022-12-18T08:42:21;-7.10;99.90
5429;DHT22;2737;52.386;9.980;2022-12-18T08:45:06;-7.00;99.90
5429;DHT22;2737;52.386;9.980;2022-12-18T08:47:33;-7.00;99.90
5429;DHT22;2737;52.386;9.980;2022-12-18T08:50:00;-6.90;99.90
5429;DHT22;2737;52.386;9.980;2022-12-18T08:52:28;-6.80;99.90
5429;DHT22;2737;52.386;9.980;2022-12-18T08:54:57;-6.70;99.90
5429;DHT22;2737;52.386;9.980;2022-12-18T08:57:24;-6.70;99.90
5429;DHT22;2737;52.386;9.980;2022-12-18T08:59:51;-6.60;99.90
5429;DHT22;2737;52.386;9.980;2022-12-18T09:02:18;-6.50;99.90
5429;DHT22;2737;52.386;9.980;2022-12-18T09:04:46;-6.40;99.90
5429;DHT22;2737;52.386;9.980;2022-12-18T09:07:14;-6.30;99.90
5429;DHT22;2737;52.386;9.980;2022-12-18T09:09:42;-6.20;99.90
5429;DHT22;2737;52.386;9.980;2022-12-18T09:12:09;-6.10;99.90
5429;DHT22;2737;52.386;9.980;2022-12-18T09:14:36;-6.00;99.90
5429;DHT22;2737;52.386;9.980;2022-12-18T09:17:03;-6.00;99.90
5429;DHT22;2737;52.386;9.980;2022-12-18T09:19:31;-5.90;99.90
5429;DHT22;2737;52.386;9.980;2022-12-18T09:21:58;-5.90;99.90
5429;DHT22;2737;52.386;9.980;2022-12-18T09:24:25;-5.80;99.90
5429;DHT22;2737;52.386;9.980;2022-12-18T09:26:54;-5.70;99.90
5429;DHT22;2737;52.386;9.980;2022-12-18T09:29:21;-5.60;99.90
5429;DHT22;2737;52.386;9.980;2022-12-18T09:31:48;-5.60;99.90
5429;DHT22;2737;52.386;9.980;2022-12-18T09:34:16;-5.40;99.90
5429;DHT22;2737;52.386;9.980;2022-12-18T09:36:43;-5.30;99.90
5429;DHT22;2737;52.386;9.980;2022-12-18T09:39:10;-5.10;99.90
5429;DHT22;2737;52.386;9.980;2022-12-18T09:41:46;-5.00;99.90
5429;DHT22;2737;52.386;9.980;2022-12-18T09:44:26;-4.90;99.90
5429;DHT22;2737;52.386;9.980;2022-12-18T09:47:10;-4.80;99.90
5429;DHT22;2737;52.386;9.980;2022-12-18T09:49:42;-4.70;99.90
5429;DHT22;2737;52.386;9.980;2022-12-18T09:52:14;-4.60;99.90
5429;DHT22;2737;52.386;9.980;2022-12-18T09:54:45;-4.60;99.90
5429;DHT22;2737;52.386;9.980;2022-12-18T09:57:14;-4.50;99.90
5429;DHT22;2737;52.386;9.980;2022-12-18T09:59:48;-4.40;99.90
5429;DHT22;2737;52.386;9.980;2022-12-18T10:02:18;-4.40;99.90
5429;DHT22;2737;52.386;9.980;2022-12-18T10:05:01;-4.30;99.90
5429;DHT22;2737;52.386;9.980;2022-12-18T10:07:35;-4.30;99.90
5429;DHT22;2737;52.386;9.980;2022-12-18T10:10:07;-4.30;99.90
5429;DHT22;2737;52.386;9.980;2022-12-18T10:12:42;-4.30;99.90
5429;DHT22;2737;52.386;9.980;2022-12-18T10:15:19;-4.20;99.90
5429;DHT22;2737;52.386;9.980;2022-12-18T10:17:53;-4.20;99.90
5429;DHT22;2737;52.386;9.980;2022-12-18T10:20:27;-4.20;99.90
5429;DHT22;2737;52.386;9.980;2022-12-18T10:23:01;-4.10;99.90
5429;DHT22;2737;52.386;9.980;2022-12-18T10:25:34;-4.10;99.90
5429;DHT22;2737;52.386;9.980;2022-12-18T10:28:13;-4.00;99.90
5429;DHT22;2737;52.386;9.980;2022-12-18T10:30:43;-4.00;99.90
5429;DHT22;2737;52.386;9.980;2022-12-18T10:33:11;-3.90;99.90
5429;DHT22;2737;52.386;9.980;2022-12-18T10:35:42;-3.90;99.90
5429;DHT22;2737;52.386;9.980;2022-12-18T10:38:21;-3.90;99.90
5429;DHT22;2737;52.386;9.980;2022-12-18T10:40:51;-3.80;99.90
5429;DHT22;2737;52.386;9.980;2022-12-18T10:43:21;-3.80;99.90
5429;DHT22;2737;52.386;9.980;2022-12-18T10:46:01;-3.80;99.90
5429;DHT22;2737;52.386;9.980;2022-12-18T10:48:30;-3.70;99.90
5429;DHT22;2737;52.386;9.980;2022-12-18T10:50:57;-3.70;99.90
5429;DHT22;2737;52.386;9.980;2022-12-18T10:53:26;-3.70;99.90
5429;DHT22;2737;52.386;9.980;2022-12-18T10:55:55;-3.60;99.90
5429;DHT22;2737;52.386;9.980;2022-12-18T10:58:27;-3.60;99.90
5429;DHT22;2737;52.386;9.980;2022-12-18T11:01:06;-3.50;99.90
5429;DHT22;2737;52.386;9.980;2022-12-18T11:03:36;-3.40;99.90
5429;DHT22;2737;52.386;9.980;2022-12-18T11:06:06;-3.30;99.90
5429;DHT22;2737;52.386;9.980;2022-12-18T11:08:33;-3.30;99.90
5429;DHT22;2737;52.386;9.980;2022-12-18T11:11:00;-3.20;99.90
5429;DHT22;2737;52.386;9.980;2022-12-18T11:13:29;-3.10;99.90
5429;DHT22;2737;52.386;9.980;2022-12-18T11:15:57;-3.10;99.90
5429;DHT22;2737;52.386;9.980;2022-12-18T11:18:28;-3.00;99.90
5429;DHT22;2737;52.386;9.980;2022-12-18T11:20:59;-2.90;99.90
5429;DHT22;2737;52.386;9.980;2022-12-18T11:23:28;-2.80;99.90
5429;DHT22;2737;52.386;9.980;2022-12-18T11:25:57;-2.80;99.90
5429;DHT22;2737;52.386;9.980;2022-12-18T11:28:34;-2.90;99.90
5429;DHT22;2737;52.386;9.980;2022-12-18T11:31:20;-2.90;99.90
5429;DHT22;2737;52.386;9.980;2022-12-18T11:33:52;-3.00;99.90
5429;DHT22;2737;52.386;9.980;2022-12-18T11:36:21;-2.90;99.90
5429;DHT22;2737;52.386;9.980;2022-12-18T11:38:50;-2.90;99.90
5429;DHT22;2737;52.386;9.980;2022-12-18T11:41:23;-2.90;99.90
5429;DHT22;2737;52.386;9.980;2022-12-18T11:44:15;-2.90;99.90
5429;DHT22;2737;52.386;9.980;2022-12-18T11:46:49;-2.90;99.90
5429;DHT22;2737;52.386;9.980;2022-12-18T11:49:24;-2.80;99.90
5429;DHT22;2737;52.386;9.980;2022-12-18T11:51:58;-2.70;99.90
5429;DHT22;2737;52.386;9.980;2022-12-18T11:54:26;-2.60;99.90
5429;DHT22;2737;52.386;9.980;2022-12-18T11:56:58;-2.60;99.90
5429;DHT22;2737;52.386;9.980;2022-12-18T11:59:32;-2.50;99.90
5429;DHT22;2737;52.386;9.980;2022-12-18T12:02:14;-2.50;99.90
5429;DHT22;2737;52.386;9.980;2022-12-18T12:04:58;-2.50;99.90
5429;DHT22;2737;52.386;9.980;2022-12-18T12:07:38;-2.40;99.90
5429;DHT22;2737;52.386;9.980;2022-12-18T12:10:20;-2.40;99.90
5429;DHT22;2737;52.386;9.980;2022-12-18T12:13:01;-2.40;99.90
5429;DHT22;2737;52.386;9.980;2022-12-18T12:15:39;-2.40;99.90
5429;DHT22;2737;52.386;9.980;2022-12-18T12:18:20;-2.40;99.90
5429;DHT22;2737;52.386;9.980;2022-12-18T12:21:01;-2.40;99.90
5429;DHT22;2737;52.386;9.980;2022-12-18T12:23:36;-2.30;99.90
5429;DHT22;2737;52.386;9.980;2022-12-18T12:26:08;-2.40;99.90
5429;DHT22;2737;52.386;9.980;2022-12-18T12:28:56;-2.40;99.90
5429;DHT22;2737;52.386;9.980;2022-12-18T12:31:35;-2.40;99.90
5429;DHT22;2737;52.386;9.980;2022-12-18T12:34:09;-2.40;99.90
5429;DHT22;2737;52.386;9.980;2022-12-18T12:36:52;-2.40;99.90
5429;DHT22;2737;52.386;9.980;2022-12-18T12:39:26;-2.40;99.90
5429;DHT22;2737;52.386;9.980;2022-12-18T12:41:54;-2.40;99.90
5429;DHT22;2737;52.386;9.980;2022-12-18T12:44:42;-2.40;99.90
5429;DHT22;2737;52.386;9.980;2022-12-18T12:47:15;-2.40;99.90
5429;DHT22;2737;52.386;9.980;2022-12-18T12:49:45;-2.50;99.90
5429;DHT22;2737;52.386;9.980;2022-12-18T12:52:20;-2.50;99.90
5429;DHT22;2737;52.386;9.980;2022-12-18T12:54:52;-2.50;99.90
5429;DHT22;2737;52.386;9.980;2022-12-18T12:57:22;-2.60;99.90
5429;DHT22;2737;52.386;9.980;2022-12-18T12:59:56;-2.50;99.90
5429;DHT22;2737;52.386;9.980;2022-12-18T13:02:29;-2.50;99.90
5429;DHT22;2737;52.386;9.980;2022-12-18T13:05:02;-2.60;99.90
5429;DHT22;2737;52.386;9.980;2022-12-18T13:07:37;-2.60;99.90
5429;DHT22;2737;52.386;9.980;2022-12-18T13:10:30;-2.60;99.90
5429;DHT22;2737;52.386;9.980;2022-12-18T13:12:59;-2.60;99.90
5429;DHT22;2737;52.386;9.980;2022-12-18T13:15:31;-2.50;99.90
5429;DHT22;2737;52.386;9.980;2022-12-18T13:18:05;-2.60;99.90
5429;DHT22;2737;52.386;9.980;2022-12-18T13:20:34;-2.60;99.90
5429;DHT22;2737;52.386;9.980;2022-12-18T13:23:20;-2.60;99.90
5429;DHT22;2737;52.386;9.980;2022-12-18T13:25:53;-2.60;99.90
5429;DHT22;2737;52.386;9.980;2022-12-18T13:28:21;-2.60;99.90
5429;DHT22;2737;52.386;9.980;2022-12-18T13:30:52;-2.60;99.90
5429;DHT22;2737;52.386;9.980;2022-12-18T13:33:41;-2.70;99.90
5429;DHT22;2737;52.386;9.980;2022-12-18T13:36:29;-2.70;99.90
5429;DHT22;2737;52.386;9.980;2022-12-18T13:39:25;-2.70;99.90
5429;DHT22;2737;52.386;9.980;2022-12-18T13:45:42;-2.70;99.90
5429;DHT22;2737;52.386;9.980;2022-12-18T13:48:22;-2.80;99.90
5429;DHT22;2737;52.386;9.980;2022-12-18T13:50:55;-2.80;99.90
5429;DHT22;2737;52.386;9.980;2022-12-18T13:53:26;-2.80;99.90
5429;DHT22;2737;52.386;9.980;2022-12-18T13:55:55;-2.80;99.90
5429;DHT22;2737;52.386;9.980;2022-12-18T13:58:23;-2.80;99.90
5429;DHT22;2737;52.386;9.980;2022-12-18T14:00:50;-2.90;99.90
5429;DHT22;2737;52.386;9.980;2022-12-18T14:03:22;-2.90;99.90
5429;DHT22;2737;52.386;9.980;2022-12-18T14:05:58;-2.90;99.90
5429;DHT22;2737;52.386;9.980;2022-12-18T14:08:29;-2.90;99.90
5429;DHT22;2737;52.386;9.980;2022-12-18T14:11:01;-2.90;99.90
5429;DHT22;2737;52.386;9.980;2022-12-18T14:13:32;-2.90;99.90
5429;DHT22;2737;52.386;9.980;2022-12-18T14:16:01;-3.00;99.90
5429;DHT22;2737;52.386;9.980;2022-12-18T14:18:33;-3.00;99.90
5429;DHT22;2737;52.386;9.980;2022-12-18T14:21:04;-3.00;99.90
5429;DHT22;2737;52.386;9.980;2022-12-18T14:23:33;-3.00;99.90
5429;DHT22;2737;52.386;9.980;2022-12-18T14:26:03;-3.00;99.90
5429;DHT22;2737;52.386;9.980;2022-12-18T14:28:44;-3.10;99.90
5429;DHT22;2737;52.386;9.980;2022-12-18T14:31:17;-3.10;99.90
5429;DHT22;2737;52.386;9.980;2022-12-18T14:33:45;-3.10;99.90
5429;DHT22;2737;52.386;9.980;2022-12-18T14:36:15;-3.10;99.90
5429;DHT22;2737;52.386;9.980;2022-12-18T14:38:43;-3.10;99.90
5429;DHT22;2737;52.386;9.980;2022-12-18T14:41:16;-3.20;99.90
5429;DHT22;2737;52.386;9.980;2022-12-18T14:43:46;-3.20;99.90
5429;DHT22;2737;52.386;9.980;2022-12-18T14:46:29;-3.20;99.90
5429;DHT22;2737;52.386;9.980;2022-12-18T14:48:58;-3.20;99.90
5429;DHT22;2737;52.386;9.980;2022-12-18T14:51:27;-3.20;99.90
5429;DHT22;2737;52.386;9.980;2022-12-18T14:53:56;-3.20;99.90
5429;DHT22;2737;52.386;9.980;2022-12-18T14:56:27;-3.30;99.90
5429;DHT22;2737;52.386;9.980;2022-12-18T14:58:56;-3.30;99.90
5429;DHT22;2737;52.386;9.980;2022-12-18T15:01:26;-3.20;99.90
5429;DHT22;2737;52.386;9.980;2022-12-18T15:03:55;-3.30;99.90
5429;DHT22;2737;52.386;9.980;2022-12-18T15:06:34;-3.40;99.90
5429;DHT22;2737;52.386;9.980;2022-12-18T15:09:03;-3.40;99.90
5429;DHT22;2737;52.386;9.980;2022-12-18T15:11:44;-3.40;99.90
5429;DHT22;2737;52.386;9.980;2022-12-18T15:14:33;-3.40;99.90
5429;DHT22;2737;52.386;9.980;2022-12-18T15:17:02;-3.40;99.90
5429;DHT22;2737;52.386;9.980;2022-12-18T15:19:38;-3.40;99.90
5429;DHT22;2737;52.386;9.980;2022-12-18T15:22:21;-3.50;99.90
5429;DHT22;2737;52.386;9.980;2022-12-18T15:24:49;-3.50;99.90
5429;DHT22;2737;52.386;9.980;2022-12-18T15:27:24;-3.50;99.90
5429;DHT22;2737;52.386;9.980;2022-12-18T15:30:18;-3.50;99.90
5429;DHT22;2737;52.386;9.980;2022-12-18T15:32:47;-3.50;99.90
5429;DHT22;2737;52.386;9.980;2022-12-18T15:35:17;-3.50;99.90
5429;DHT22;2737;52.386;9.980;2022-12-18T15:37:45;-3.50;99.90
5429;DHT22;2737;52.386;9.980;2022-12-18T15:40:13;-3.50;99.90
5429;DHT22;2737;52.386;9.980;2022-12-18T15:42:43;-3.50;99.90
5429;DHT22;2737;52.386;9.980;2022-12-18T15:45:27;-3.50;99.90
5429;DHT22;2737;52.386;9.980;2022-12-18T15:47:54;-3.60;99.90
5429;DHT22;2737;52.386;9.980;2022-12-18T15:50:22;-3.60;99.90
5429;DHT22;2737;52.386;9.980;2022-12-18T15:52:51;-3.60;99.90
5429;DHT22;2737;52.386;9.980;2022-12-18T15:55:20;-3.70;99.90
5429;DHT22;2737;52.386;9.980;2022-12-18T15:58:07;-3.60;99.90
5429;DHT22;2737;52.386;9.980;2022-12-18T16:00:38;-3.70;99.90
5429;DHT22;2737;52.386;9.980;2022-12-18T16:03:05;-3.70;99.90
5429;DHT22;2737;52.386;9.980;2022-12-18T16:05:33;-3.70;99.90
5429;DHT22;2737;52.386;9.980;2022-12-18T16:08:00;-3.70;99.90
5429;DHT22;2737;52.386;9.980;2022-12-18T16:10:28;-3.80;99.90
5429;DHT22;2737;52.386;9.980;2022-12-18T16:12:55;-3.80;99.90
5429;DHT22;2737;52.386;9.980;2022-12-18T16:15:24;-3.80;99.90
5429;DHT22;2737;52.386;9.980;2022-12-18T16:17:51;-3.80;99.90
5429;DHT22;2737;52.386;9.980;2022-12-18T16:20:21;-3.80;99.90
5429;DHT22;2737;52.386;9.980;2022-12-18T16:22:48;-3.80;99.90
5429;DHT22;2737;52.386;9.980;2022-12-18T16:25:18;-3.80;99.90
5429;DHT22;2737;52.386;9.980;2022-12-18T16:27:46;-3.80;99.90